Airport View

Enter AWOS ICAO identifier for current METAR.

ex. KFNL

KISO 212256Z 00000KT 10SM CLR 26/16 A3021

21 Sep 2019 23:25

Frequency: 132.75

Phone: 252-522-2712

Other Area AWOS: KGSB - KGWW - KPGV - KDPL

TAF KISO 211728Z 2118/2218 VRB03KT P6SM SKC FM220900 00000KT 3SM BR SKC FM221200 VRB03KT P6SM SKC AMD LTD TO CLD VIS AND WIND